Portada
METAR-TAF:

METAR-TAF

Aeroports :

Pattaya-Rayong, Tailàndia

latitud: 12-38N, longitud: 101-21E, altitud: 3 m

Observació

L'informe es va fer fa 41 minuts, a les 12:30 UTC
Vent 6 kt del Sud-Oest
Temperatura 30°C
Humitat 66%
Pressió 1008 hPa
Visibilitat 10 km o més
Escasses núvols a una alçada de 2000 ft

METAR: VTBU 201230Z 22006KT 9999 FEW020 30/23 Q1008 NOSIG

Hora: 20:11 (13:11 UTC)

Pronòstic

L'informe es va fer fa 2 hores i 11 minuts, a les 11:00 UTC
Pronòstic vàlid del 20 a les 12 UTC al 21 a les 12 UTC
Vent 8 kt del Sud-Oest
Visibilitat: 8000 m
Escasses núvols a una alçada de 2000 ft
Evolucionant progressivament
l' 21 a les 01 UTC al 21 a les 03 UTC
Vent 12 kt del Sud-Oest
Visibilitat 10 km o més

TAF: VTBU 201100Z 2012/2112 23008KT 8000 FEW020 BECMG 2101/2103 22012KT 9999

Observacions i pronòstics meteorològics de més de 4000 aeroports (METAR i TAF).

Les estacions disponibles són els punts grocs i vermells al mapa.

Posi el ratolí al punt desitjat per veure el nom de l'estació.

Feu clic per veure les observacions i els pronòstics meteorològics.

Per canviar el mapa: feu clic els botons verds amb una creu de color negre per apropar; al botó verd amb un guió per allunyar la imatge; o en les fletxes verdes per a mapes adjacents.


METAR-TAF: